Time;durP1;ratioP1;P1;durP2;ratioP2;P2;SDS_P1;SDS_P2;PMS_P1;PMS_P2;Temp;Humidity;BMP_temperature;BMP_pressure;BME280_temperature;BME280_humidity;BME280_pressure;Samples;Min_cycle;Max_cycle;Signal;HPM_P1;HPM_P2
2023/01/27 00:01:57;;;;;;;;;;;;;;;25.40;38.18;94089.72;5010616;28;9039;-57
2023/01/27 00:04:23;;;;;;;;;;;;;;;25.40;38.24;94092.47;5002995;28;9576;-57
2023/01/27 00:06:51;;;;;;;;;;;;;;;25.39;38.23;94079.97;5022264;28;7065;-57
2023/01/27 00:09:20;;;;;;;;;;;;;;;25.39;37.42;94082.72;5007371;28;9032;-57
2023/01/27 00:14:32;;;;;;;;;;;;;;;25.39;38.26;94082.72;5003722;28;9083;-57
2023/01/27 00:16:58;;;;;;;;;;;;;;;25.38;37.94;94076.47;5010519;28;7302;-57
2023/01/27 00:19:26;;;;;;;;;;;;;;;25.40;37.94;94078.72;5020646;28;8930;-57
2023/01/27 00:24:54;;;;;;;;;;;;;;;25.39;37.24;94080.72;4952469;28;7271;-57
2023/01/27 00:27:20;;;;;;;;;;;;;;;25.39;37.39;94077.22;4937208;28;7044;-57
2023/01/27 00:29:52;;;;;;;;;;;;;;;25.39;37.76;94079.97;4939871;28;9026;-57
2023/01/27 00:35:04;;;;;;;;;;;;;;;25.40;38.08;94081.47;4952421;28;7659;-57
2023/01/27 00:37:31;;;;;;;;;;;;;;;25.42;37.43;94078.97;4951705;28;7694;-57
2023/01/27 00:39:59;;;;;;;;;;;;;;;25.41;37.32;94083.69;4941778;28;7455;-57
2023/01/27 00:42:43;;;;;;;;;;;;;;;25.41;37.77;94080.19;4931764;28;7443;-57
2023/01/27 00:48:32;;;;;;;;;;;;;;;25.42;37.07;94070.72;4950311;28;9191;-57
2023/01/27 00:50:59;;;;;;;;;;;;;;;25.40;37.76;94073.22;4933121;28;9074;-57
2023/01/27 00:53:27;;;;;;;;;;;;;;;25.40;37.32;94059.44;4951937;28;9008;-57
2023/01/27 00:55:53;;;;;;;;;;;;;;;25.39;37.56;94064.19;4942516;28;8701;-57
2023/01/27 00:58:21;;;;;;;;;;;;;;;25.39;36.97;94068.94;4937853;28;8916;-57
2023/01/27 01:00:50;;;;;;;;;;;;;;;25.38;37.63;94059.22;4960813;28;9346;-57
2023/01/27 01:03:47;;;;;;;;;;;;;;;25.39;37.72;94066.19;5004054;28;7265;-57
2023/01/27 01:06:40;;;;;;;;;;;;;;;25.39;37.56;94058.69;4992167;28;7460;-57
2023/01/27 01:09:08;;;;;;;;;;;;;;;25.39;38.08;94063.44;4989897;28;9076;-57
2023/01/27 01:11:35;;;;;;;;;;;;;;;25.39;37.95;94066.19;4974198;28;7214;-57
2023/01/27 01:14:33;;;;;;;;;;;;;;;25.39;37.38;94063.44;4973819;28;8695;-58
2023/01/27 01:17:47;;;;;;;;;;;;;;;25.39;38.08;94066.19;4908307;29;7031;-58
2023/01/27 01:20:46;;;;;;;;;;;;;;;25.37;38.02;94068.72;4888976;29;6974;-57
2023/01/27 01:23:25;;;;;;;;;;;;;;;25.38;37.27;94072.97;4895016;29;8992;-57
2023/01/27 01:26:31;;;;;;;;;;;;;;;25.38;37.90;94072.97;4880933;29;7151;-57
2023/01/27 01:29:38;;;;;;;;;;;;;;;25.38;37.71;94070.22;4862138;29;7340;-57
2023/01/27 01:32:40;;;;;;;;;;;;;;;25.38;37.89;94070.22;4876477;29;7199;-57
2023/01/27 01:35:14;;;;;;;;;;;;;;;25.36;37.06;94067.97;4787046;29;7841;-57
2023/01/27 01:37:57;;;;;;;;;;;;;;;25.36;37.81;94062.47;5083213;27;7047;-55
2023/01/27 01:40:25;;;;;;;;;;;;;;;25.36;37.72;94065.22;5059736;28;8159;-55
2023/01/27 01:43:02;;;;;;;;;;;;;;;25.36;37.65;94065.22;5062013;28;8828;-55
2023/01/27 01:45:35;;;;;;;;;;;;;;;25.35;37.40;94063.75;5050389;28;9090;-55
2023/01/27 01:48:45;;;;;;;;;;;;;;;25.37;37.08;94057.72;5044533;28;9407;-55
2023/01/27 01:51:15;;;;;;;;;;;;;;;25.37;37.97;94058.47;5072635;28;7279;-55
2023/01/27 01:54:17;;;;;;;;;;;;;;;25.38;37.89;94059.94;5041658;28;8591;-55
2023/01/27 01:57:17;;;;;;;;;;;;;;;25.37;37.02;94046.69;5040637;28;8967;-55
2023/01/27 02:00:36;;;;;;;;;;;;;;;25.38;37.06;94048.19;4966041;28;7194;-55
2023/01/27 02:03:25;;;;;;;;;;;;;;;25.38;37.65;94043.41;4984014;28;9167;-55
2023/01/27 02:06:03;;;;;;;;;;;;;;;25.40;37.45;94048.44;4984871;28;8986;-55
2023/01/27 02:08:44;;;;;;;;;;;;;;;25.38;37.60;94040.66;4948576;28;6996;-55
2023/01/27 02:11:39;;;;;;;;;;;;;;;25.38;36.99;94039.94;4981894;28;7212;-55
2023/01/27 02:14:26;;;;;;;;;;;;;;;25.37;37.17;94030.19;4941039;28;7283;-55
2023/01/27 02:17:12;;;;;;;;;;;;;;;25.36;37.73;94034.19;4962614;28;9042;-55
2023/01/27 02:19:58;;;;;;;;;;;;;;;25.39;37.79;94031.16;4963865;28;7253;-55
2023/01/27 02:23:14;;;;;;;;;;;;;;;25.41;37.46;94030.63;4952974;28;7395;-55
2023/01/27 02:26:05;;;;;;;;;;;;;;;25.40;37.57;94032.63;4949440;28;7145;-55
2023/01/27 02:28:36;;;;;;;;;;;;;;;25.39;37.71;94031.16;4950105;28;7138;-55
2023/01/27 02:31:38;;;;;;;;;;;;;;;25.39;37.47;94024.91;4948854;28;7442;-55
2023/01/27 02:37:35;;;;;;;;;;;;;;;25.38;36.99;94021.41;4988078;28;8954;-55
2023/01/27 02:40:04;;;;;;;;;;;;;;;25.38;37.77;94026.19;5006486;28;9189;-55
2023/01/27 02:42:30;;;;;;;;;;;;;;;25.37;37.42;94028.19;5000500;28;9160;-55
2023/01/27 02:45:09;;;;;;;;;;;;;;;25.38;37.10;94028.94;4994718;28;7184;-55
2023/01/27 02:47:37;;;;;;;;;;;;;;;25.38;37.51;94023.41;4998260;28;8689;-55
2023/01/27 02:50:32;;;;;;;;;;;;;;;25.40;37.92;94029.16;4999029;28;9491;-55
2023/01/27 02:53:00;;;;;;;;;;;;;;;25.41;37.52;94030.63;4916064;29;9128;-55
2023/01/27 02:55:28;;;;;;;;;;;;;;;25.41;37.15;94025.13;4935993;29;7301;-55
2023/01/27 02:58:26;;;;;;;;;;;;;;;25.41;37.24;94019.63;4917974;29;7295;-55
2023/01/27 03:01:01;;;;;;;;;;;;;;;25.40;37.29;94018.13;4929560;29;9412;-55
2023/01/27 03:04:14;;;;;;;;;;;;;;;25.40;37.05;94013.34;4934916;29;9377;-55
2023/01/27 03:06:51;;;;;;;;;;;;;;;25.40;37.15;94013.34;4892470;29;7041;-55
2023/01/27 03:09:48;;;;;;;;;;;;;;;25.40;37.78;94020.91;4880007;29;7193;-55
2023/01/27 03:12:54;;;;;;;;;;;;;;;25.39;37.83;94014.63;4833761;29;7020;-55
2023/01/27 03:18:38;;;;;;;;;;;;;;;25.38;37.07;94017.91;4817418;29;7732;-56
2023/01/27 03:21:26;;;;;;;;;;;;;;;25.36;36.86;94025.91;5085158;27;6716;-55
2023/01/27 03:23:54;;;;;;;;;;;;;;;25.37;37.82;94010.91;5089497;28;8779;-55
2023/01/27 03:26:20;;;;;;;;;;;;;;;25.32;37.13;94009.72;5068867;28;7272;-55
2023/01/27 03:31:53;;;;;;;;;;;;;;;25.38;37.34;94012.41;5053879;28;9501;-55
2023/01/27 03:34:21;;;;;;;;;;;;;;;25.35;37.15;94002.44;5065702;28;9447;-55
2023/01/27 03:46:17;;;;;;;;;;;;;;;25.39;37.29;94002.88;5053825;28;8667;-57
2023/01/27 03:48:55;;;;;;;;;;;;;;;25.39;36.85;94000.13;5055382;28;9084;-57
2023/01/27 03:51:42;;;;;;;;;;;;;;;25.37;36.75;93997.91;5058618;28;7020;-57
2023/01/27 03:54:08;;;;;;;;;;;;;;;25.38;37.12;93993.88;5055924;28;9090;-57
2023/01/27 03:56:34;;;;;;;;;;;;;;;25.37;37.41;93995.13;5055620;28;7230;-57
2023/01/27 03:59:00;;;;;;;;;;;;;;;25.39;37.45;93997.38;5055106;28;7073;-57
2023/01/27 04:01:26;;;;;;;;;;;;;;;25.37;37.02;93995.13;5056132;28;7111;-57
2023/01/27 04:07:01;;;;;;;;;;;;;;;25.35;36.99;93994.16;5050431;28;7061;-57
2023/01/27 04:09:34;;;;;;;;;;;;;;;25.39;36.70;94000.13;5069296;28;7990;-57
2023/01/27 04:12:04;;;;;;;;;;;;;;;25.39;36.73;93994.63;5059011;28;7304;-58
2023/01/27 04:14:40;;;;;;;;;;;;;;;25.38;37.07;93999.38;5052451;28;7114;-57
2023/01/27 04:17:18;;;;;;;;;;;;;;;25.37;37.89;94008.91;5057930;28;7496;-57
2023/01/27 04:19:47;;;;;;;;;;;;;;;25.39;36.84;94003.63;5062097;28;7393;-57
2023/01/27 04:22:15;;;;;;;;;;;;;;;25.39;36.89;94002.88;5057748;28;9563;-57
2023/01/27 04:24:43;;;;;;;;;;;;;;;25.38;36.85;94004.88;5057354;28;8234;-57
2023/01/27 04:27:15;;;;;;;;;;;;;;;25.38;37.23;94015.16;5058074;28;7066;-57
2023/01/27 04:29:41;;;;;;;;;;;;;;;25.39;36.64;94016.63;5052119;28;7435;-57
2023/01/27 04:32:12;;;;;;;;;;;;;;;25.39;37.46;94022.16;5055982;28;7290;-57
2023/01/27 04:34:39;;;;;;;;;;;;;;;25.38;37.66;94017.91;5044756;28;8710;-57
2023/01/27 04:37:07;;;;;;;;;;;;;;;25.38;37.68;94015.88;5037081;28;7251;-57
2023/01/27 04:39:34;;;;;;;;;;;;;;;25.38;37.61;94015.16;5047757;28;7122;-57
2023/01/27 04:42:02;;;;;;;;;;;;;;;25.37;37.31;94016.41;5049929;28;8813;-57
2023/01/27 04:44:28;;;;;;;;;;;;;;;25.34;37.37;94003.69;5074294;28;7290;-57
2023/01/27 04:46:54;;;;;;;;;;;;;;;25.36;37.39;94006.66;5041559;28;7229;-57
2023/01/27 04:49:21;;;;;;;;;;;;;;;25.35;37.74;93999.66;5034207;28;7231;-57
2023/01/27 04:52:30;;;;;;;;;;;;;;;25.37;36.78;93997.91;5036895;28;8210;-57
2023/01/27 04:55:17;;;;;;;;;;;;;;;25.36;37.79;94003.91;5074731;28;8489;-57
2023/01/27 04:58:16;;;;;;;;;;;;;;;25.36;37.34;93996.38;5052523;28;8756;-57
2023/01/27 05:00:47;;;;;;;;;;;;;;;25.35;37.25;93992.16;4991382;28;7365;-57
2023/01/27 05:03:15;;;;;;;;;;;;;;;25.35;36.88;93963.88;4993464;28;7237;-57
2023/01/27 05:06:29;;;;;;;;;;;;;;;25.36;37.64;93987.38;4995245;28;8969;-57
2023/01/27 05:09:33;;;;;;;;;;;;;;;25.36;37.65;93995.63;4949705;28;9375;-57
2023/01/27 05:12:09;;;;;;;;;;;;;;;25.36;36.87;93992.88;4953636;28;9040;-57
2023/01/27 05:15:23;;;;;;;;;;;;;;;25.36;37.46;93984.63;4934005;28;6872;-57
2023/01/27 05:18:16;;;;;;;;;;;;;;;25.37;36.75;93992.38;4877424;29;7009;-57
2023/01/27 05:20:42;;;;;;;;;;;;;;;25.36;36.80;94003.91;4876067;29;7068;-57
2023/01/27 05:26:00;;;;;;;;;;;;;;;25.35;36.61;93988.66;4875208;29;9005;-57
2023/01/27 05:28:26;;;;;;;;;;;;;;;25.34;37.63;94001.66;4874801;29;9383;-57
2023/01/27 05:31:18;;;;;;;;;;;;;;;25.34;37.45;94003.69;4860441;29;9014;-57
2023/01/27 05:33:45;;;;;;;;;;;;;;;25.33;37.34;93996.69;4877442;29;7357;-57
2023/01/27 05:36:26;;;;;;;;;;;;;;;25.34;36.85;94000.91;4882602;29;8298;-57
2023/01/27 05:38:58;;;;;;;;;;;;;;;25.36;37.75;94003.91;4915051;29;7291;-57
2023/01/27 05:41:24;;;;;;;;;;;;;;;25.35;36.80;94005.94;4938332;28;9035;-57
2023/01/27 05:43:56;;;;;;;;;;;;;;;25.34;36.70;94014.69;4926350;29;7196;-57
2023/01/27 05:46:38;;;;;;;;;;;;;;;25.35;37.22;94022.44;4945599;28;7706;-57
2023/01/27 05:49:13;;;;;;;;;;;;;;;25.36;37.11;94018.41;4952716;28;7267;-57
2023/01/27 05:51:43;;;;;;;;;;;;;;;25.38;37.03;94015.16;4967259;28;7403;-57
2023/01/27 05:54:21;;;;;;;;;;;;;;;25.39;37.63;94008.38;4998128;28;7261;-57
2023/01/27 05:57:17;;;;;;;;;;;;;;;25.39;37.13;94016.63;5063951;28;8674;-57
2023/01/27 05:59:54;;;;;;;;;;;;;;;25.40;37.49;94020.91;4989410;28;9036;-57
2023/01/27 06:02:51;;;;;;;;;;;;;;;25.41;37.67;94011.34;4989861;28;7285;-57
2023/01/27 06:05:26;;;;;;;;;;;;;;;25.43;37.78;94008.84;4921610;28;8709;-57
2023/01/27 06:07:52;;;;;;;;;;;;;;;25.47;36.97;94012.06;4934404;29;9128;-57
2023/01/27 06:10:29;;;;;;;;;;;;;;;25.44;36.86;94013.13;4918347;29;8779;-56
2023/01/27 06:12:55;;;;;;;;;;;;;;;25.45;37.05;94025.59;4934698;28;9068;-57
2023/01/27 06:15:39;;;;;;;;;;;;;;;25.47;37.20;94014.09;4916837;29;9072;-57
2023/01/27 06:18:18;;;;;;;;;;;;;;;25.48;36.88;94008.06;4929927;29;7464;-57
2023/01/27 06:20:45;;;;;;;;;;;;;;;25.49;36.71;94015.03;4929483;29;7280;-57
2023/01/27 06:23:13;;;;;;;;;;;;;;;25.48;36.89;94012.81;4933414;29;9518;-57
2023/01/27 06:25:45;;;;;;;;;;;;;;;25.47;37.26;94009.31;4930382;29;9131;-57
2023/01/27 06:28:16;;;;;;;;;;;;;;;25.46;37.91;94013.34;4932934;28;7477;-57
2023/01/27 06:30:43;;;;;;;;;;;;;;;25.45;36.86;94009.09;4925318;29;8721;-56
2023/01/27 06:33:11;;;;;;;;;;;;;;;25.52;36.73;94032.53;4924110;29;7034;-56
2023/01/27 06:35:43;;;;;;;;;;;;;;;25.49;36.93;94019.81;4934974;28;6871;-56
2023/01/27 06:38:13;;;;;;;;;;;;;;;25.50;37.72;94029.56;4999135;28;7234;-56
2023/01/27 06:40:42;;;;;;;;;;;;;;;25.49;37.47;94025.31;5008049;28;7274;-56
2023/01/27 06:43:12;;;;;;;;;;;;;;;25.55;36.76;94045.28;5038315;28;8704;-56
2023/01/27 06:45:38;;;;;;;;;;;;;;;25.60;36.17;94041.72;5041192;28;8730;-56
2023/01/27 06:48:11;;;;;;;;;;;;;;;25.54;35.77;94041.03;5033983;28;7263;-56
2023/01/27 06:50:41;;;;;;;;;;;;;;;25.48;35.99;94040.34;5055677;28;6992;-56
2023/01/27 06:53:36;;;;;;;;;;;;;;;25.45;35.93;94036.63;5069708;28;9026;-57
2023/01/27 06:56:42;;;;;;;;;;;;;;;25.42;36.12;94043.91;5078465;28;7274;-56
2023/01/27 06:59:35;;;;;;;;;;;;;;;25.40;37.05;94040.88;5051921;28;9354;-57
2023/01/27 07:02:17;;;;;;;;;;;;;;;25.36;36.80;94045.19;4958812;28;9288;-57
2023/01/27 07:05:09;;;;;;;;;;;;;;;25.39;37.01;94055.19;4975198;28;7043;-57
2023/01/27 07:07:47;;;;;;;;;;;;;;;25.39;37.13;94060.69;4964244;28;7177;-57
2023/01/27 07:10:16;;;;;;;;;;;;;;;25.40;36.48;94060.16;4974016;28;7106;-57
2023/01/27 07:12:42;;;;;;;;;;;;;;;25.39;36.82;94055.19;4994595;28;7023;-57
2023/01/27 07:15:10;;;;;;;;;;;;;;;25.37;37.92;94054.97;4972177;28;9167;-57
2023/01/27 07:17:41;;;;;;;;;;;;;;;25.37;37.41;94068.72;4991703;28;7237;-57
2023/01/27 07:20:11;;;;;;;;;;;;;;;25.35;37.31;94072.00;4985646;28;7293;-57
2023/01/27 07:22:37;;;;;;;;;;;;;;;25.36;37.71;94075.47;4964482;28;7815;-56
2023/01/27 07:25:07;;;;;;;;;;;;;;;25.36;37.85;94078.97;4967024;28;7264;-56
2023/01/27 07:27:35;;;;;;;;;;;;;;;25.35;37.44;94085.00;4966562;28;7234;-57
2023/01/27 07:30:01;;;;;;;;;;;;;;;25.35;37.78;94088.53;4977871;28;9422;-57
2023/01/27 07:32:29;;;;;;;;;;;;;;;25.36;37.96;94094.75;4978769;28;7431;-57
2023/01/27 07:35:35;;;;;;;;;;;;;;;25.37;37.51;94080.50;4964488;28;7298;-57
2023/01/27 07:38:12;;;;;;;;;;;;;;;25.36;37.94;94083.75;4950848;28;7277;-57
2023/01/27 07:40:57;;;;;;;;;;;;;;;25.38;37.19;94086.75;5002171;28;7236;-57
2023/01/27 07:43:42;;;;;;;;;;;;;;;25.38;38.14;94086.75;4994278;28;8774;-57
2023/01/27 07:46:22;;;;;;;;;;;;;;;25.37;37.97;94085.25;4997288;28;7208;-57
2023/01/27 07:49:06;;;;;;;;;;;;;;;25.36;37.97;94084.50;5004493;28;7571;-57
2023/01/27 07:51:42;;;;;;;;;;;;;;;25.40;37.72;94079.44;4981778;28;7265;-57
2023/01/27 07:54:18;;;;;;;;;;;;;;;25.39;37.28;94088.22;4983260;28;8693;-57
2023/01/27 07:56:44;;;;;;;;;;;;;;;25.34;37.18;94073.25;4998731;28;7029;-57
2023/01/27 07:59:10;;;;;;;;;;;;;;;25.36;37.60;94083.75;4975222;28;7199;-57
2023/01/27 08:01:46;;;;;;;;;;;;;;;25.35;37.95;94083.00;4985498;28;9277;-57
2023/01/27 08:04:14;;;;;;;;;;;;;;;25.34;37.85;94080.75;4985739;28;8185;-56
2023/01/27 08:06:41;;;;;;;;;;;;;;;25.35;38.25;94074.75;5000095;28;9119;-56
2023/01/27 08:09:07;;;;;;;;;;;;;;;25.36;37.41;94076.22;5014563;28;9079;-56
2023/01/27 08:11:37;;;;;;;;;;;;;;;25.35;38.03;94082.25;5040305;28;8970;-57
2023/01/27 08:14:34;;;;;;;;;;;;;;;25.37;38.63;94096.25;5041818;28;7959;-57
2023/01/27 08:17:19;;;;;;;;;;;;;;;25.37;37.54;94085.25;5046417;28;9038;-57
2023/01/27 08:19:50;;;;;;;;;;;;;;;25.36;38.15;94087.25;5049460;28;9072;-57
2023/01/27 08:22:20;;;;;;;;;;;;;;;25.36;37.77;94090.00;5053202;28;7055;-57
2023/01/27 08:24:50;;;;;;;;;;;;;;;25.35;38.23;94094.03;5036504;28;8456;-57
2023/01/27 08:27:16;;;;;;;;;;;;;;;25.37;37.92;94090.75;5056247;28;8744;-57
2023/01/27 08:29:45;;;;;;;;;;;;;;;25.37;37.90;94091.50;5042995;28;7026;-57
2023/01/27 08:32:17;;;;;;;;;;;;;;;25.37;38.22;94096.25;5079506;28;7592;-57
2023/01/27 08:35:03;;;;;;;;;;;;;;;25.35;38.33;94093.28;5041072;28;7662;-57
2023/01/27 08:37:30;;;;;;;;;;;;;;;25.35;37.51;94102.28;5050309;28;8937;-57
2023/01/27 08:40:22;;;;;;;;;;;;;;;25.39;38.32;94113.00;5050798;28;8718;-57
2023/01/27 08:42:53;;;;;;;;;;;;;;;25.38;38.04;94112.25;5050293;28;7013;-57
2023/01/27 08:45:27;;;;;;;;;;;;;;;25.38;38.29;94106.75;5041098;28;9131;-57
2023/01/27 08:47:53;;;;;;;;;;;;;;;25.38;37.51;94108.78;5045278;28;9265;-57
2023/01/27 08:50:21;;;;;;;;;;;;;;;25.39;38.04;94113.00;5075280;28;7325;-57
2023/01/27 08:52:50;;;;;;;;;;;;;;;25.37;37.83;94127.28;5051615;28;9053;-57
2023/01/27 08:55:16;;;;;;;;;;;;;;;25.38;38.58;94123.25;5038667;28;7294;-57
2023/01/27 08:57:42;;;;;;;;;;;;;;;25.39;38.48;94113.00;5043199;28;7257;-57
2023/01/27 09:00:11;;;;;;;;;;;;;;;25.39;37.72;94116.50;5048968;28;8922;-57
2023/01/27 09:02:37;;;;;;;;;;;;;;;25.40;38.45;94117.25;5057620;28;9052;-57
2023/01/27 09:05:37;;;;;;;;;;;;;;;25.39;37.93;94126.75;5043266;28;8279;-57
2023/01/27 09:08:12;;;;;;;;;;;;;;;25.38;37.81;94119.78;4990812;28;8940;-57
2023/01/27 09:10:40;;;;;;;;;;;;;;;25.39;37.61;94116.50;4977099;28;9081;-57
2023/01/27 09:13:27;;;;;;;;;;;;;;;25.41;38.06;94115.97;4975752;28;6957;-56
2023/01/27 09:15:53;;;;;;;;;;;;;;;25.39;38.58;94118.50;4980506;28;7429;-57
2023/01/27 09:18:22;;;;;;;;;;;;;;;25.40;37.88;94122.75;4986155;28;9119;-57
2023/01/27 09:20:48;;;;;;;;;;;;;;;25.38;38.69;94115.00;4968024;28;7435;-57
2023/01/27 09:23:13;;;;;;;;;;;;;;;25.39;38.37;94115.75;4988216;28;7010;-57
2023/01/27 09:25:39;;;;;;;;;;;;;;;25.40;38.20;94129.00;4984723;28;7303;-57
2023/01/27 09:28:08;;;;;;;;;;;;;;;25.22;33.26;94123.44;4989198;28;9028;-57
2023/01/27 09:30:48;;;;;;;;;;;;;;;25.02;28.84;94137.59;4974588;28;9085;-56
2023/01/27 09:33:46;;;;;;;;;;;;;;;24.82;26.69;94136.00;4991095;28;7021;-56
2023/01/27 09:36:23;;;;;;;;;;;;;;;24.79;26.24;94139.06;4990267;28;9066;-56
2023/01/27 09:39:08;;;;;;;;;;;;;;;24.85;27.68;94129.50;4973251;28;7538;-57
2023/01/27 09:42:04;;;;;;;;;;;;;;;24.87;24.58;94126.97;4983112;28;9126;-56
2023/01/27 09:45:21;;;;;;;;;;;;;;;24.90;25.13;94130.72;5050262;28;7033;-56
2023/01/27 09:48:25;;;;;;;;;;;;;;;24.89;25.46;94129.22;5050104;28;8682;-56
2023/01/27 09:51:24;;;;;;;;;;;;;;;24.93;26.32;94129.69;5037860;28;7272;-57
2023/01/27 09:54:19;;;;;;;;;;;;;;;24.93;26.29;94138.69;4993823;28;7052;-56
2023/01/27 09:57:13;;;;;;;;;;;;;;;24.97;26.76;94130.16;4994613;28;9048;-56
2023/01/27 10:00:27;;;;;;;;;;;;;;;24.97;26.60;94125.38;4994188;28;9000;-56
2023/01/27 10:03:16;;;;;;;;;;;;;;;24.99;27.60;94125.63;4993229;28;8944;-56
2023/01/27 10:09:38;;;;;;;;;;;;;;;25.04;28.40;94124.09;4966335;28;8878;-56
2023/01/27 10:12:50;;;;;;;;;;;;;;;25.07;27.84;94120.31;4949652;28;7458;-56
2023/01/27 10:15:31;;;;;;;;;;;;;;;25.07;29.09;94128.56;4951685;28;8226;-57
2023/01/27 10:18:05;;;;;;;;;;;;;;;25.08;29.23;94127.28;4950332;28;7297;-57
2023/01/27 10:20:59;;;;;;;;;;;;;;;25.09;28.76;94115.78;4968521;28;7279;-56
2023/01/27 10:24:00;;;;;;;;;;;;;;;25.10;28.96;94111.03;4957366;28;8714;-57
2023/01/27 10:26:36;;;;;;;;;;;;;;;25.11;29.15;94116.03;4947455;28;9156;-56
2023/01/27 10:29:26;;;;;;;;;;;;;;;25.15;29.84;94118.47;4962229;28;7334;-56
2023/01/27 10:35:52;;;;;;;;;;;;;;;25.15;30.38;94124.00;4933739;29;7312;-56
2023/01/27 10:38:49;;;;;;;;;;;;;;;25.18;29.97;94128.47;4933424;29;8690;-57
2023/01/27 10:52:36;;;;;;;;;;;;;;;25.29;29.83;94111.84;4876048;29;6797;-65
2023/01/27 10:55:17;;;;;;;;;;;;;;;25.28;31.29;94115.84;4869915;29;7278;-65
2023/01/27 10:58:00;;;;;;;;;;;;;;;25.26;30.19;94113.63;4876536;29;7233;-66
2023/01/27 11:01:15;;;;;;;;;;;;;;;25.28;31.61;94113.09;4852140;29;6988;-66
2023/01/27 11:03:59;;;;;;;;;;;;;;;25.28;31.06;94105.59;4820232;29;9178;-65
2023/01/27 11:07:04;;;;;;;;;;;;;;;25.29;31.46;94112.59;4808323;29;6877;-66
2023/01/27 11:10:17;;;;;;;;;;;;;;;25.30;32.00;94124.34;4793171;29;7034;-66
2023/01/27 11:12:50;;;;;;;;;;;;;;;25.30;31.42;94124.34;4809349;29;7933;-65
2023/01/27 11:15:32;;;;;;;;;;;;;;;25.30;32.81;94129.84;4802401;29;7612;-65
2023/01/27 11:21:43;;;;;;;;;;;;;;;25.29;33.55;94126.34;4824714;29;8213;-65
2023/01/27 11:24:33;;;;;;;;;;;;;;;25.30;33.60;94118.84;4832621;29;7646;-65
2023/01/27 11:27:11;;;;;;;;;;;;;;;25.30;33.21;94121.59;4897609;29;8996;-65
2023/01/27 11:30:24;;;;;;;;;;;;;;;25.31;33.32;94123.09;4881761;29;7005;-65
2023/01/27 11:33:13;;;;;;;;;;;;;;;25.29;33.49;94112.59;4874034;29;7122;-65
2023/01/27 11:35:54;;;;;;;;;;;;;;;25.30;34.27;94121.59;4879099;29;7050;-65
2023/01/27 11:39:09;;;;;;;;;;;;;;;25.34;34.32;94116.53;4878686;29;7498;-65
2023/01/27 11:41:52;;;;;;;;;;;;;;;25.38;33.20;94120.50;4912890;29;9515;-64
2023/01/27 11:44:32;;;;;;;;;;;;;;;25.42;33.12;94123.03;4950742;28;8720;-65
2023/01/27 11:47:41;;;;;;;;;;;;;;;25.41;33.18;94115.97;4972707;28;7498;-64
2023/01/27 11:50:26;;;;;;;;;;;;;;;25.37;33.45;94116.28;4949327;28;7497;-65
2023/01/27 11:53:23;;;;;;;;;;;;;;;25.37;32.67;94108.00;4954191;28;9052;-64
2023/01/27 11:56:06;;;;;;;;;;;;;;;25.35;33.62;94105.03;5009807;28;7067;-64
2023/01/27 11:58:39;;;;;;;;;;;;;;;25.34;32.86;94109.03;5044346;28;7263;-64
2023/01/27 12:01:16;;;;;;;;;;;;;;;25.36;33.93;94111.25;5046329;28;7282;-65
2023/01/27 12:03:57;;;;;;;;;;;;;;;25.37;33.83;94107.25;5056664;28;7095;-64
2023/01/27 12:06:35;;;;;;;;;;;;;;;25.37;33.06;94115.53;5042890;28;9070;-64
2023/01/27 12:09:44;;;;;;;;;;;;;;;25.37;33.05;94119.03;5051043;28;7346;-65
2023/01/27 12:12:56;;;;;;;;;;;;;;;25.34;33.22;94114.53;5059415;28;8733;-64
2023/01/27 12:16:13;;;;;;;;;;;;;;;25.34;34.16;94125.56;5070455;28;9395;-64
2023/01/27 12:19:03;;;;;;;;;;;;;;;25.34;33.37;94114.53;4994960;28;7127;-63
2023/01/27 12:21:46;;;;;;;;;;;;;;;25.33;34.26;94117.81;4988524;28;7369;-61
2023/01/27 12:24:39;;;;;;;;;;;;;;;25.33;33.42;94107.56;4996650;28;9067;-61
2023/01/27 12:27:06;;;;;;;;;;;;;;;25.29;34.34;94096.06;4985905;28;7110;-61
2023/01/27 12:29:47;;;;;;;;;;;;;;;25.33;34.09;94101.31;5003213;28;7261;-61
2023/01/27 12:32:38;;;;;;;;;;;;;;;25.33;34.24;94104.06;4995668;28;7292;-61
2023/01/27 12:35:41;;;;;;;;;;;;;;;25.34;33.68;94098.03;4987748;28;8721;-61
2023/01/27 12:38:35;;;;;;;;;;;;;;;25.35;34.26;94087.75;4934072;29;8637;-62
2023/01/27 12:41:40;;;;;;;;;;;;;;;25.36;34.91;94084.50;4915195;29;9193;-60
2023/01/27 12:44:43;;;;;;;;;;;;;;;25.36;34.99;94090.00;4935215;29;7544;-60
2023/01/27 12:50:52;;;;;;;;;;;;;;;25.47;34.57;94094.66;4824612;29;7280;-61
2023/01/27 12:54:13;;;;;;;;;;;;;;;25.81;34.29;94090.28;4832747;29;9145;-62
2023/01/27 12:57:03;;;;;;;;;;;;;;;25.96;33.45;94078.81;4836437;29;7035;-61
2023/01/27 12:59:33;;;;;;;;;;;;;;;25.97;34.29;94083.06;4835053;29;7298;-62
2023/01/27 13:02:50;;;;;;;;;;;;;;;25.93;33.55;94090.88;4839100;29;8968;-62
2023/01/27 13:05:36;;;;;;;;;;;;;;;25.81;33.32;94095.03;4768493;30;8483;-61
2023/01/27 13:08:04;;;;;;;;;;;;;;;25.78;34.37;94096.81;4766201;30;9039;-62
2023/01/27 13:10:33;;;;;;;;;;;;;;;25.78;34.13;94090.56;4766349;30;7017;-62
2023/01/27 13:13:00;;;;;;;;;;;;;;;25.81;34.10;94098.56;4814702;29;9332;-62
2023/01/27 13:15:31;;;;;;;;;;;;;;;25.85;33.58;94092.75;4831776;29;7107;-62
2023/01/27 13:17:59;;;;;;;;;;;;;;;25.81;34.63;94100.56;4824987;29;9044;-62
2023/01/27 13:20:37;;;;;;;;;;;;;;;25.75;34.74;94089.59;4825054;29;9232;-62
2023/01/27 13:23:22;;;;;;;;;;;;;;;25.71;33.97;94094.66;4859686;29;7163;-62
2023/01/27 13:26:03;;;;;;;;;;;;;;;25.69;35.00;94090.91;4912852;29;9069;-62
2023/01/27 13:29:09;;;;;;;;;;;;;;;25.64;34.62;94092.50;4913196;29;7468;-62
2023/01/27 13:32:23;;;;;;;;;;;;;;;25.61;34.82;94090.75;4948474;28;8762;-62
2023/01/27 13:35:15;;;;;;;;;;;;;;;25.54;34.84;94094.09;4896662;29;7205;-62
2023/01/27 13:41:45;;;;;;;;;;;;;;;25.52;34.79;94096.63;4922646;28;7111;-62
2023/01/27 13:44:37;;;;;;;;;;;;;;;25.51;34.87;94099.91;4932712;28;8933;-62
2023/01/27 13:47:27;;;;;;;;;;;;;;;25.49;35.44;94108.66;4933223;28;9040;-62
2023/01/27 13:50:01;;;;;;;;;;;;;;;25.49;35.25;94105.91;4934208;28;8313;-62
2023/01/27 13:52:51;;;;;;;;;;;;;;;25.51;34.38;94108.16;4928553;28;7208;-62
2023/01/27 13:55:47;;;;;;;;;;;;;;;25.50;35.41;94110.16;4952722;28;9030;-62
2023/01/27 13:58:33;;;;;;;;;;;;;;;25.48;34.58;94100.91;4926288;28;9427;-62
2023/01/27 14:01:19;;;;;;;;;;;;;;;25.45;34.69;94101.97;4949515;28;9371;-62
2023/01/27 14:03:52;;;;;;;;;;;;;;;25.47;34.83;94107.72;4939429;28;7275;-61
2023/01/27 14:06:26;;;;;;;;;;;;;;;25.46;35.02;94109.72;4949646;28;7058;-61
2023/01/27 14:09:11;;;;;;;;;;;;;;;25.46;35.17;94108.97;4932977;28;9062;-62
2023/01/27 14:12:14;;;;;;;;;;;;;;;25.47;35.08;94118.72;4953441;28;7502;-62
2023/01/27 14:15:02;;;;;;;;;;;;;;;25.45;35.02;94110.97;4972298;28;7349;-62
2023/01/27 14:21:29;;;;;;;;;;;;;;;25.43;35.57;94113.47;5040274;28;6812;-61
2023/01/27 14:24:04;;;;;;;;;;;;;;;25.42;35.03;94118.25;5038022;28;7348;-61
2023/01/27 14:26:59;;;;;;;;;;;;;;;25.44;34.63;94112.22;5057398;28;7213;-62
2023/01/27 14:29:44;;;;;;;;;;;;;;;25.42;35.44;94115.47;5050001;28;7507;-61
2023/01/27 14:32:54;;;;;;;;;;;;;;;25.43;34.46;94127.25;5051015;28;7208;-62
2023/01/27 14:35:45;;;;;;;;;;;;;;;25.41;34.72;94122.25;5042909;28;7056;-61
2023/01/27 14:38:20;;;;;;;;;;;;;;;25.42;34.53;94132.00;5062943;28;7497;-61
2023/01/27 14:41:13;;;;;;;;;;;;;;;25.43;35.48;94138.25;5044427;28;8242;-61
2023/01/27 14:43:59;;;;;;;;;;;;;;;25.43;34.83;94130.75;5039280;28;6990;-61
2023/01/27 14:50:19;;;;;;;;;;;;;;;25.42;35.42;94131.28;5049179;28;6829;-62
2023/01/27 14:53:28;;;;;;;;;;;;;;;25.43;35.52;94132.75;5073664;28;7833;-61
2023/01/27 14:56:33;;;;;;;;;;;;;;;25.43;34.48;94136.25;5038493;28;9165;-62
2023/01/27 15:03:06;;;;;;;;;;;;;;;25.45;35.66;94151.53;4990807;28;7256;-62
2023/01/27 15:06:30;;;;;;;;;;;;;;;25.45;35.71;94146.03;4972959;28;9533;-62
2023/01/27 15:13:10;;;;;;;;;;;;;;;25.47;35.33;94149.72;4908171;29;9395;-62
2023/01/27 15:16:19;;;;;;;;;;;;;;;25.44;35.67;94156.28;4899169;29;9164;-62
2023/01/27 15:19:24;;;;;;;;;;;;;;;25.43;34.90;94154.78;4897999;29;6860;-62
2023/01/27 15:21:56;;;;;;;;;;;;;;;25.40;35.93;94161.31;4912645;29;7237;-62
2023/01/27 15:25:01;;;;;;;;;;;;;;;25.39;35.65;94151.53;4906605;29;7215;-61
2023/01/27 15:27:28;;;;;;;;;;;;;;;25.38;35.38;94155.56;4914595;29;6852;-62
2023/01/27 15:29:54;;;;;;;;;;;;;;;25.40;35.93;94166.81;4911757;29;8460;-62
2023/01/27 15:32:45;;;;;;;;;;;;;;;25.40;34.98;94175.81;4911780;29;7165;-61
2023/01/27 15:35:37;;;;;;;;;;;;;;;25.45;35.68;94168.06;4923684;28;7265;-61